Pagina principale
METAR-TAF:

METAR-TAF

Aeroporti :

Aeroporto di Esenboğa

Ankara Esenboğa, Turchia

latitudine: 40-07N, longitudine: 032-59E, altezza: 953 m

Osservazione

Il bollettino è stato emesso 26 minuti fa, alle 02:50 UTC
Vento 2 kt da direzioni variabili
Temperature 9°C
Umidità 46%
Pressione 1020 hPa
Visibilità 10 km o più
nessuna nube inferiore a 1500 m e nessun cumulonembo

METAR: LTAC 160250Z VRB02KT CAVOK 09/M02 Q1020 NOSIG RMK RWY21L 35006KT RWY03L VRB02KT RWY21R 01004KT

Ora: 06:16 (03:16 UTC)

Previsione

Il bollettino è stato emesso 4 ore e 36 minuti fa, alle 22:40 UTC
Previsione valida dal 16 alle 00 UTC al 16 alle 24 UTC
Vento 2 kt da direzioni variabili
Visibilità 10 km o più
nessuna nube inferiore a 1500 m e nessun cumulonembo
Evoluzione graduale
dal 16 alle 06 UTC al 16 alle 08 UTC
Nubi sparse ad un'altezza di 4000 ft

TAF: LTAC 152240Z 1600/1624 VRB02KT CAVOK BECMG 1606/1608 SCT040

Osservazioni e previsioni meteorologiche di più di 4000 aeroporti (messaggi METAR e TAF).

Le stazioni disponibili sono rappresentate dai dischi gialli e rossi sulla carta.

Puntare il mouse per vedere il nome della stazione.

Clicca sopra per visualizzare le osservazioni e previsioni meteorologiche.

Per cambiare la mappa : fare clic sui pulsanti verdi con una croce nera per ingrandire, il pulsante verde con un trattino per diminuire, o sulla freccia verde per le mappe adiacenti.


METAR-TAF: